createdAt,value
2023-02-07T00:02:22.119Z,29.80
2023-02-07T00:04:51.270Z,28.13
2023-02-07T00:07:17.899Z,34.08
2023-02-07T00:09:44.697Z,38.97
2023-02-07T00:12:14.276Z,40.08
2023-02-07T00:14:40.929Z,47.85
2023-02-07T00:17:07.802Z,34.85
2023-02-07T00:19:37.844Z,40.22
2023-02-07T00:22:04.488Z,31.88
2023-02-07T00:24:33.982Z,31.33
2023-02-07T00:27:03.940Z,29.17
2023-02-07T00:29:30.554Z,36.63
2023-02-07T00:31:57.509Z,31.17
2023-02-07T00:34:24.245Z,31.30
2023-02-07T00:36:50.847Z,33.33
2023-02-07T00:39:18.695Z,26.02
2023-02-07T00:41:45.691Z,27.63
2023-02-07T00:44:12.483Z,28.85
2023-02-07T00:46:39.389Z,24.67
2023-02-07T00:49:07.192Z,34.17
2023-02-07T00:51:34.276Z,30.95
2023-02-07T00:54:01.275Z,26.48
2023-02-07T00:56:29.724Z,34.78
2023-02-07T00:58:59.309Z,36.05
2023-02-07T01:01:27.679Z,38.05
2023-02-07T01:03:55.131Z,27.58
2023-02-07T01:06:21.915Z,31.42
2023-02-07T01:08:48.664Z,31.33
2023-02-07T01:11:16.770Z,24.60
2023-02-07T01:13:46.515Z,19.38
2023-02-07T01:16:26.274Z,24.75
2023-02-07T01:18:53.455Z,24.20
2023-02-07T01:21:23.502Z,20.65
2023-02-07T01:23:51.227Z,22.30
2023-02-07T01:26:18.162Z,20.95
2023-02-07T01:28:47.556Z,19.23
2023-02-07T01:31:14.574Z,21.80
2023-02-07T01:33:41.520Z,22.80
2023-02-07T01:36:13.279Z,21.75
2023-02-07T01:38:40.682Z,22.42
2023-02-07T01:41:07.978Z,23.02
2023-02-07T01:44:01.749Z,22.73
2023-02-07T01:46:29.526Z,28.83
2023-02-07T01:48:59.896Z,19.95
2023-02-07T01:51:28.201Z,20.85
2023-02-07T01:54:01.824Z,27.80
2023-02-07T01:56:31.940Z,18.30
2023-02-07T01:59:05.836Z,22.25
2023-02-07T02:01:33.296Z,21.13
2023-02-07T02:03:59.986Z,22.40
2023-02-07T02:06:54.338Z,22.20
2023-02-07T02:12:06.914Z,16.58
2023-02-07T02:14:50.902Z,19.15
2023-02-07T02:20:28.856Z,22.10
2023-02-07T02:23:14.111Z,27.40
2023-02-07T02:26:17.530Z,28.05
2023-02-07T02:29:02.450Z,19.77
2023-02-07T02:31:47.004Z,21.65
2023-02-07T02:34:22.744Z,19.38
2023-02-07T02:37:07.377Z,19.15
2023-02-07T02:40:10.431Z,20.25
2023-02-07T02:42:46.112Z,25.58
2023-02-07T02:45:18.634Z,22.63
2023-02-07T02:47:48.308Z,25.70
2023-02-07T02:50:21.391Z,26.40
2023-02-07T02:52:51.048Z,27.20
2023-02-07T02:55:29.351Z,28.52
2023-02-07T02:58:04.755Z,27.73
2023-02-07T03:01:06.211Z,21.20
2023-02-07T03:03:47.888Z,24.30
2023-02-07T03:06:48.850Z,20.58
2023-02-07T03:09:21.990Z,21.25
2023-02-07T03:12:14.050Z,21.45
2023-02-07T03:15:24.223Z,27.98
2023-02-07T03:18:32.531Z,33.35
2023-02-07T03:21:15.620Z,33.45
2023-02-07T03:23:46.731Z,32.63
2023-02-07T03:26:14.115Z,31.58
2023-02-07T03:28:45.367Z,27.17
2023-02-07T03:31:17.248Z,24.35
2023-02-07T03:33:48.868Z,26.42
2023-02-07T03:36:50.083Z,25.77
2023-02-07T03:39:17.056Z,27.35
2023-02-07T03:41:53.116Z,28.45
2023-02-07T03:44:23.129Z,37.47
2023-02-07T03:46:51.154Z,35.95
2023-02-07T03:49:23.710Z,34.72
2023-02-07T03:51:51.845Z,32.83
2023-02-07T03:54:18.628Z,31.55
2023-02-07T03:56:45.583Z,30.58
2023-02-07T03:59:12.197Z,34.83
2023-02-07T04:01:43.598Z,30.85
2023-02-07T04:04:11.083Z,34.47
2023-02-07T04:06:40.744Z,33.17
2023-02-07T04:09:11.864Z,40.47
2023-02-07T04:11:47.725Z,42.83
2023-02-07T04:14:15.616Z,36.60
2023-02-07T04:16:45.319Z,39.80
2023-02-07T04:19:15.324Z,37.40
2023-02-07T04:21:44.253Z,35.38
2023-02-07T04:24:11.605Z,37.38
2023-02-07T04:26:42.263Z,32.33
2023-02-07T04:29:09.221Z,35.58
2023-02-07T04:31:37.684Z,38.33
2023-02-07T04:34:06.263Z,36.65
2023-02-07T04:36:32.942Z,35.65
2023-02-07T04:38:59.574Z,36.22
2023-02-07T04:41:26.281Z,34.35
2023-02-07T04:43:53.154Z,29.77
2023-02-07T04:46:23.179Z,35.10
2023-02-07T04:48:50.253Z,31.83
2023-02-07T04:51:16.959Z,32.17
2023-02-07T04:53:43.609Z,33.33
2023-02-07T04:56:10.794Z,33.92
2023-02-07T04:58:37.851Z,28.98
2023-02-07T05:01:04.592Z,35.17
2023-02-07T05:03:31.594Z,32.45
2023-02-07T05:05:58.232Z,33.28
2023-02-07T05:08:26.270Z,35.00
2023-02-07T05:10:57.048Z,34.80
2023-02-07T05:13:24.896Z,39.75
2023-02-07T05:15:51.843Z,43.50
2023-02-07T05:18:18.890Z,50.72
2023-02-07T05:20:45.621Z,48.80
2023-02-07T05:23:12.323Z,47.28
2023-02-07T05:25:41.171Z,54.75
2023-02-07T05:28:07.997Z,52.60
2023-02-07T05:30:34.716Z,48.47
2023-02-07T05:33:04.623Z,47.35
2023-02-07T05:35:36.999Z,46.70
2023-02-07T05:38:07.663Z,47.20
2023-02-07T05:40:38.523Z,43.03
2023-02-07T05:43:05.414Z,46.85
2023-02-07T05:45:32.829Z,42.70
2023-02-07T05:47:59.760Z,37.72
2023-02-07T05:50:26.933Z,42.10
2023-02-07T05:52:53.699Z,43.10
2023-02-07T05:55:20.401Z,34.58
2023-02-07T05:57:47.265Z,34.33
2023-02-07T06:00:16.534Z,34.60
2023-02-07T06:02:43.858Z,45.53
2023-02-07T06:05:17.404Z,45.03
2023-02-07T06:07:44.410Z,40.33
2023-02-07T06:10:11.448Z,39.97
2023-02-07T06:12:38.549Z,40.80
2023-02-07T06:15:05.792Z,39.40
2023-02-07T06:17:32.552Z,39.83
2023-02-07T06:19:59.303Z,47.88
2023-02-07T06:22:25.974Z,58.33
2023-02-07T06:24:52.674Z,55.17
2023-02-07T06:27:19.441Z,55.00
2023-02-07T06:29:46.287Z,56.67
2023-02-07T06:32:12.947Z,46.28
2023-02-07T06:34:39.681Z,43.42
2023-02-07T06:37:06.317Z,44.58
2023-02-07T06:39:32.972Z,39.63
2023-02-07T06:41:59.780Z,43.90
2023-02-07T06:44:26.780Z,44.67
2023-02-07T06:46:53.410Z,43.00
2023-02-07T06:49:20.082Z,41.58
2023-02-07T06:51:46.823Z,38.78
2023-02-07T06:54:13.702Z,41.70
2023-02-07T06:56:40.439Z,42.75
2023-02-07T06:59:07.100Z,42.63
2023-02-07T07:01:33.901Z,50.78
2023-02-07T07:04:00.779Z,52.92
2023-02-07T07:06:27.398Z,50.55
2023-02-07T07:08:54.074Z,46.20
2023-02-07T07:11:20.804Z,50.97
2023-02-07T07:13:47.719Z,53.10
2023-02-07T07:16:14.731Z,56.53
2023-02-07T07:18:41.612Z,47.95
2023-02-07T07:21:08.807Z,54.10
2023-02-07T07:23:36.140Z,55.55
2023-02-07T07:26:02.968Z,54.40
2023-02-07T07:28:30.313Z,46.97
2023-02-07T07:31:03.746Z,48.97
2023-02-07T07:33:30.715Z,47.88
2023-02-07T07:35:58.541Z,48.83
2023-02-07T07:38:25.548Z,48.97
2023-02-07T07:40:52.446Z,41.90
2023-02-07T07:43:19.448Z,38.90
2023-02-07T07:45:51.550Z,40.03
2023-02-07T07:48:18.343Z,42.50
2023-02-07T07:50:44.961Z,40.67
2023-02-07T07:53:11.744Z,43.03
2023-02-07T07:55:38.607Z,37.03
2023-02-07T07:58:05.376Z,36.80
2023-02-07T08:00:32.244Z,34.58
2023-02-07T08:02:59.070Z,37.90
2023-02-07T08:05:25.813Z,35.92
2023-02-07T08:07:52.749Z,38.88
2023-02-07T08:10:19.341Z,33.45
2023-02-07T08:12:46.058Z,39.22
2023-02-07T08:15:14.085Z,35.17
2023-02-07T08:17:40.714Z,42.53
2023-02-07T08:20:07.836Z,45.90
2023-02-07T08:22:34.670Z,38.97
2023-02-07T08:25:01.447Z,39.25
2023-02-07T08:27:28.106Z,34.38
2023-02-07T08:29:54.781Z,33.63
2023-02-07T08:32:21.408Z,33.88
2023-02-07T08:34:48.028Z,27.67
2023-02-07T08:37:14.972Z,32.65
2023-02-07T08:39:41.865Z,33.03
2023-02-07T08:42:09.610Z,37.97
2023-02-07T08:44:37.138Z,32.47
2023-02-07T08:47:04.254Z,36.83
2023-02-07T08:49:31.072Z,33.38
2023-02-07T08:51:57.837Z,31.77
2023-02-07T08:54:24.521Z,34.88
2023-02-07T08:56:51.192Z,36.67
2023-02-07T08:59:17.965Z,32.67
2023-02-07T09:01:44.690Z,30.50
2023-02-07T09:04:11.692Z,34.90
2023-02-07T09:06:38.946Z,36.00
2023-02-07T09:09:06.610Z,36.42
2023-02-07T09:11:33.827Z,34.47
2023-02-07T09:14:00.678Z,29.17
2023-02-07T09:16:27.720Z,31.75
2023-02-07T09:18:54.624Z,30.60
2023-02-07T09:21:21.840Z,27.30
2023-02-07T09:23:48.576Z,25.77
2023-02-07T09:26:20.446Z,22.52
2023-02-07T09:28:47.308Z,22.17
2023-02-07T09:31:15.934Z,31.80
2023-02-07T09:33:43.369Z,33.08
2023-02-07T09:36:28.395Z,30.55
2023-02-07T09:38:55.850Z,28.80
2023-02-07T09:41:39.543Z,24.88
2023-02-07T09:44:32.833Z,22.17
2023-02-07T09:47:04.127Z,22.60
2023-02-07T09:49:36.305Z,23.48
2023-02-07T09:52:06.252Z,20.30
2023-02-07T09:54:40.769Z,22.60
2023-02-07T09:57:19.740Z,25.42
2023-02-07T09:59:54.574Z,27.70
2023-02-07T10:02:30.498Z,33.35
2023-02-07T10:05:02.878Z,26.88
2023-02-07T10:07:30.821Z,28.80
2023-02-07T10:09:57.687Z,29.48
2023-02-07T10:12:43.807Z,28.67
2023-02-07T10:15:17.166Z,32.22
2023-02-07T10:18:02.038Z,31.52
2023-02-07T10:20:52.198Z,31.55
2023-02-07T10:23:34.655Z,29.05
2023-02-07T10:26:24.447Z,31.58
2023-02-07T10:29:08.396Z,30.13
2023-02-07T10:31:38.929Z,27.30
2023-02-07T10:34:14.412Z,28.38
2023-02-07T10:36:46.556Z,30.23
2023-02-07T10:39:51.210Z,26.83
2023-02-07T10:42:20.215Z,27.98
2023-02-07T10:44:47.569Z,28.17
2023-02-07T10:47:17.489Z,30.70
2023-02-07T10:49:51.460Z,28.52
2023-02-07T10:52:29.205Z,31.05
2023-02-07T10:54:59.117Z,24.67
2023-02-07T10:57:27.863Z,25.67
2023-02-07T11:00:23.772Z,25.77
2023-02-07T11:02:52.863Z,27.50
2023-02-07T11:05:20.894Z,24.33
2023-02-07T11:07:57.056Z,24.83
2023-02-07T11:10:25.948Z,27.88
2023-02-07T11:12:57.928Z,27.55
2023-02-07T11:15:32.920Z,32.45
2023-02-07T11:17:59.995Z,29.02
2023-02-07T11:20:34.206Z,28.35
2023-02-07T11:25:33.072Z,31.08
2023-02-07T11:27:59.799Z,25.27
2023-02-07T11:30:29.666Z,28.65
2023-02-07T11:33:03.774Z,27.65
2023-02-07T11:35:30.750Z,26.83
2023-02-07T11:38:14.558Z,24.40
2023-02-07T11:40:44.062Z,25.35
2023-02-07T11:43:13.918Z,22.35
2023-02-07T11:45:45.176Z,25.08
2023-02-07T11:48:24.486Z,22.63
2023-02-07T11:50:57.091Z,29.10
2023-02-07T11:53:48.612Z,27.70
2023-02-07T11:56:45.721Z,26.33
2023-02-07T11:59:17.141Z,26.80
2023-02-07T12:01:50.849Z,28.70
2023-02-07T12:07:08.358Z,23.98
2023-02-07T12:09:54.716Z,29.05
2023-02-07T12:12:39.787Z,23.75
2023-02-07T12:15:18.085Z,23.33
2023-02-07T12:18:06.721Z,22.83
2023-02-07T12:20:38.819Z,23.30
2023-02-07T12:23:48.038Z,22.77
2023-02-07T12:26:26.343Z,24.58
2023-02-07T12:29:38.472Z,23.02
2023-02-07T12:32:07.984Z,21.10
2023-02-07T12:34:41.525Z,21.65
2023-02-07T12:37:14.154Z,23.67
2023-02-07T12:39:53.034Z,22.88
2023-02-07T12:42:39.073Z,21.80
2023-02-07T12:45:13.717Z,21.85
2023-02-07T12:48:01.882Z,20.70
2023-02-07T12:50:55.025Z,21.17
2023-02-07T12:54:15.815Z,19.67
2023-02-07T12:56:46.907Z,17.58
2023-02-07T12:59:33.986Z,20.25
2023-02-07T13:02:24.547Z,21.13
2023-02-07T13:05:18.761Z,20.30
2023-02-07T13:07:52.355Z,18.80
2023-02-07T13:10:41.047Z,20.30
2023-02-07T13:13:23.701Z,22.65
2023-02-07T13:16:02.539Z,21.83
2023-02-07T13:18:38.101Z,20.88
2023-02-07T13:21:18.098Z,22.52
2023-02-07T13:23:47.577Z,18.00
2023-02-07T13:26:19.987Z,21.55
2023-02-07T13:29:07.379Z,19.05
2023-02-07T13:31:40.009Z,19.92
2023-02-07T13:34:15.667Z,18.50
2023-02-07T13:36:45.138Z,18.25
2023-02-07T13:39:36.549Z,18.95
2023-02-07T13:42:06.618Z,17.60
2023-02-07T13:44:57.591Z,18.67
2023-02-07T13:48:01.803Z,21.25
2023-02-07T13:50:47.484Z,21.83
2023-02-07T13:53:48.036Z,18.48
2023-02-07T13:56:34.404Z,22.55
2023-02-07T13:59:20.796Z,21.25
2023-02-07T14:01:54.440Z,16.40
2023-02-07T14:04:56.140Z,17.40
2023-02-07T14:07:31.601Z,20.00
2023-02-07T14:09:59.100Z,16.52
2023-02-07T14:12:30.192Z,18.45
2023-02-07T14:15:29.325Z,17.15
2023-02-07T14:18:02.632Z,17.23
2023-02-07T14:20:38.644Z,18.10
2023-02-07T14:23:08.465Z,16.17
2023-02-07T14:25:35.012Z,18.23
2023-02-07T14:28:04.990Z,17.75
2023-02-07T14:30:56.134Z,18.08
2023-02-07T14:33:32.661Z,16.25
2023-02-07T14:36:21.488Z,19.75
2023-02-07T14:39:20.482Z,18.23
2023-02-07T14:41:49.307Z,16.10
2023-02-07T14:44:32.976Z,16.52
2023-02-07T14:47:01.265Z,14.97
2023-02-07T14:49:51.438Z,18.88
2023-02-07T14:52:31.446Z,15.30
2023-02-07T14:55:02.984Z,17.60
2023-02-07T14:57:38.770Z,17.33
2023-02-07T15:00:14.672Z,18.73
2023-02-07T15:02:47.835Z,17.58
2023-02-07T15:05:26.986Z,14.63
2023-02-07T15:08:18.414Z,17.33
2023-02-07T15:11:04.199Z,16.85
2023-02-07T15:13:43.919Z,17.27
2023-02-07T15:16:24.530Z,19.67
2023-02-07T15:18:56.758Z,17.98
2023-02-07T15:21:30.135Z,25.27
2023-02-07T15:24:19.528Z,18.77
2023-02-07T15:27:00.438Z,21.30
2023-02-07T15:29:37.935Z,21.45
2023-02-07T15:32:49.368Z,19.98
2023-02-07T15:35:37.022Z,21.05
2023-02-07T15:38:17.320Z,20.75
2023-02-07T15:40:44.235Z,22.27
2023-02-07T15:43:23.957Z,20.58
2023-02-07T15:46:07.907Z,22.08
2023-02-07T15:48:50.933Z,22.90
2023-02-07T15:51:20.610Z,17.55
2023-02-07T15:53:53.133Z,17.65
2023-02-07T15:56:19.994Z,19.77
2023-02-07T15:58:48.235Z,18.02
2023-02-07T16:01:27.535Z,17.83
2023-02-07T16:03:58.361Z,21.50
2023-02-07T16:06:31.077Z,20.30
2023-02-07T16:09:00.544Z,18.13
2023-02-07T16:11:28.322Z,17.73
2023-02-07T16:14:17.504Z,19.42
2023-02-07T16:16:50.590Z,16.83
2023-02-07T16:19:29.555Z,17.85
2023-02-07T16:22:10.123Z,19.88
2023-02-07T16:24:39.424Z,19.65
2023-02-07T16:27:07.284Z,17.33
2023-02-07T16:29:36.316Z,19.77
2023-02-07T16:32:03.226Z,16.42
2023-02-07T16:34:30.363Z,18.50
2023-02-07T16:36:57.514Z,19.00
2023-02-07T16:39:24.352Z,16.52
2023-02-07T16:41:55.815Z,18.90
2023-02-07T16:44:24.682Z,19.55
2023-02-07T16:46:51.839Z,17.63
2023-02-07T16:49:24.336Z,20.42
2023-02-07T16:51:51.298Z,22.40
2023-02-07T16:54:18.750Z,17.15
2023-02-07T16:56:48.067Z,20.40
2023-02-07T16:59:23.762Z,20.35
2023-02-07T17:01:52.954Z,19.35
2023-02-07T17:04:20.462Z,35.13
2023-02-07T17:06:48.134Z,46.80
2023-02-07T17:09:24.174Z,44.50
2023-02-07T17:11:54.804Z,42.88
2023-02-07T17:14:22.204Z,41.35
2023-02-07T17:16:49.272Z,31.75
2023-02-07T17:19:24.000Z,37.05
2023-02-07T17:21:52.142Z,35.42
2023-02-07T17:24:19.040Z,42.08
2023-02-07T17:26:50.454Z,45.78
2023-02-07T17:29:18.331Z,47.53
2023-02-07T17:31:46.033Z,47.42
2023-02-07T17:34:13.297Z,44.15
2023-02-07T17:36:45.205Z,47.75
2023-02-07T17:39:14.299Z,43.75
2023-02-07T17:41:40.897Z,41.42
2023-02-07T17:44:07.915Z,43.45
2023-02-07T17:46:35.100Z,40.80
2023-02-07T17:49:02.180Z,39.67
2023-02-07T17:51:29.350Z,39.33
2023-02-07T17:53:56.799Z,40.85
2023-02-07T17:56:24.792Z,37.08
2023-02-07T17:58:53.326Z,34.03
2023-02-07T18:01:20.383Z,29.92
2023-02-07T18:03:48.465Z,32.58
2023-02-07T18:06:16.991Z,31.02
2023-02-07T18:08:45.108Z,36.38
2023-02-07T18:11:14.302Z,34.58
2023-02-07T18:13:42.241Z,27.13
2023-02-07T18:16:13.202Z,28.85
2023-02-07T18:18:40.061Z,26.05
2023-02-07T18:21:07.080Z,27.35
2023-02-07T18:23:33.984Z,30.08
2023-02-07T18:26:00.870Z,31.23
2023-02-07T18:28:28.323Z,30.58
2023-02-07T18:30:55.006Z,31.40
2023-02-07T18:33:21.705Z,27.13
2023-02-07T18:35:51.412Z,29.85
2023-02-07T18:38:18.482Z,28.92
2023-02-07T18:40:45.083Z,29.52
2023-02-07T18:43:11.697Z,27.77
2023-02-07T18:45:42.245Z,28.85
2023-02-07T18:48:09.542Z,34.97
2023-02-07T18:50:36.514Z,29.27
2023-02-07T18:53:05.386Z,32.80
2023-02-07T18:55:32.125Z,30.92
2023-02-07T18:57:58.971Z,33.72
2023-02-07T19:00:25.841Z,31.15
2023-02-07T19:02:52.466Z,30.02
2023-02-07T19:05:20.667Z,57.70
2023-02-07T19:07:47.658Z,58.22
2023-02-07T19:10:16.561Z,33.88
2023-02-07T19:12:43.242Z,33.17
2023-02-07T19:15:10.229Z,49.03
2023-02-07T19:17:36.860Z,38.72
2023-02-07T19:20:03.535Z,41.95
2023-02-07T19:22:35.651Z,66.40
2023-02-07T19:25:03.048Z,53.53
2023-02-07T19:27:29.664Z,70.38
2023-02-07T19:29:56.524Z,49.70
2023-02-07T19:32:23.209Z,47.17
2023-02-07T19:34:50.150Z,43.80
2023-02-07T19:37:16.875Z,40.13
2023-02-07T19:39:46.139Z,45.22
2023-02-07T19:42:12.848Z,38.42
2023-02-07T19:44:39.555Z,40.72
2023-02-07T19:47:06.264Z,41.20
2023-02-07T19:49:32.882Z,43.03
2023-02-07T19:51:59.577Z,43.20
2023-02-07T19:54:26.422Z,33.55
2023-02-07T19:56:53.160Z,36.20
2023-02-07T19:59:19.834Z,33.28
2023-02-07T20:01:46.515Z,39.72
2023-02-07T20:04:13.322Z,31.83
2023-02-07T20:06:40.140Z,32.90
2023-02-07T20:09:07.614Z,39.33
2023-02-07T20:11:35.086Z,69.07
2023-02-07T20:14:06.803Z,39.38
2023-02-07T20:16:36.746Z,63.92
2023-02-07T20:19:06.766Z,48.92
2023-02-07T20:21:35.773Z,48.65
2023-02-07T20:24:03.161Z,51.17
2023-02-07T20:26:33.395Z,53.97
2023-02-07T20:29:02.177Z,58.72
2023-02-07T20:31:32.159Z,48.03
2023-02-07T20:33:59.598Z,43.10
2023-02-07T20:36:28.047Z,42.08
2023-02-07T20:38:58.034Z,41.90
2023-02-07T20:41:31.449Z,38.15
2023-02-07T20:44:07.482Z,35.83
2023-02-07T20:46:36.204Z,36.47
2023-02-07T20:49:12.329Z,37.92
2023-02-07T20:51:40.163Z,32.95
2023-02-07T20:54:07.282Z,30.92
2023-02-07T20:56:34.420Z,32.40
2023-02-07T20:59:01.178Z,30.73
2023-02-07T21:01:30.483Z,29.77
2023-02-07T21:03:59.985Z,31.75
2023-02-07T21:06:27.827Z,29.05
2023-02-07T21:09:01.207Z,36.42
2023-02-07T21:14:19.723Z,28.75
2023-02-07T21:16:46.674Z,36.92
2023-02-07T21:19:14.838Z,33.47
2023-02-07T21:21:42.673Z,34.47
2023-02-07T21:24:10.145Z,51.75
2023-02-07T21:26:36.964Z,74.43
2023-02-07T21:29:05.438Z,107.15
2023-02-07T21:31:34.885Z,70.85
2023-02-07T21:34:03.604Z,133.10
2023-02-07T21:36:33.419Z,94.88
2023-02-07T21:39:04.880Z,80.30
2023-02-07T21:41:31.822Z,70.50
2023-02-07T21:43:59.942Z,63.85
2023-02-07T21:46:30.206Z,63.13
2023-02-07T21:49:01.485Z,62.60
2023-02-07T21:51:30.223Z,54.70
2023-02-07T21:53:57.847Z,59.38
2023-02-07T21:56:30.260Z,62.13
2023-02-07T21:59:02.739Z,55.42
2023-02-07T22:01:31.133Z,47.03
2023-02-07T22:04:00.148Z,53.38
2023-02-07T22:06:28.402Z,55.10
2023-02-07T22:08:57.557Z,58.08
2023-02-07T22:11:26.021Z,61.20
2023-02-07T22:13:53.768Z,61.10
2023-02-07T22:16:23.173Z,58.22
2023-02-07T22:18:52.203Z,57.03
2023-02-07T22:21:25.049Z,46.33
2023-02-07T22:23:52.312Z,46.78
2023-02-07T22:26:19.063Z,49.95
2023-02-07T22:28:46.733Z,42.25
2023-02-07T22:31:19.458Z,45.33
2023-02-07T22:33:47.207Z,51.00
2023-02-07T22:36:16.658Z,52.05
2023-02-07T22:38:43.529Z,51.70
2023-02-07T22:41:10.822Z,54.10
2023-02-07T22:43:39.728Z,50.85
2023-02-07T22:46:08.799Z,58.80
2023-02-07T22:48:36.196Z,52.92
2023-02-07T22:51:34.193Z,40.58
2023-02-07T22:54:10.240Z,47.00
2023-02-07T22:56:38.106Z,55.15
2023-02-07T22:59:05.881Z,37.15
2023-02-07T23:01:35.510Z,37.97
2023-02-07T23:04:03.980Z,36.70
2023-02-07T23:06:32.682Z,56.25
2023-02-07T23:09:00.433Z,56.05
2023-02-07T23:11:27.138Z,41.10
2023-02-07T23:13:54.040Z,40.50
2023-02-07T23:16:24.472Z,41.78
2023-02-07T23:18:53.238Z,42.17
2023-02-07T23:21:22.233Z,36.45
2023-02-07T23:23:49.655Z,34.22
2023-02-07T23:26:18.978Z,38.50
2023-02-07T23:28:45.635Z,39.17
2023-02-07T23:31:14.800Z,44.25
2023-02-07T23:33:41.825Z,44.53
2023-02-07T23:36:09.219Z,54.70
2023-02-07T23:38:36.402Z,69.85
2023-02-07T23:41:03.247Z,75.22
2023-02-07T23:43:30.222Z,62.88
2023-02-07T23:45:57.199Z,67.50
2023-02-07T23:48:23.870Z,58.40
2023-02-07T23:50:59.270Z,53.30
2023-02-07T23:53:26.040Z,46.35
2023-02-07T23:55:55.364Z,44.75
2023-02-07T23:58:26.456Z,50.15
